createdAt,value
2018-11-14T00:00:23.346Z,22.39
2018-11-14T00:02:50.084Z,22.33
2018-11-14T00:05:16.726Z,22.33
2018-11-14T00:07:43.379Z,22.31
2018-11-14T00:10:13.030Z,22.31
2018-11-14T00:12:39.717Z,22.29
2018-11-14T00:15:06.524Z,22.28
2018-11-14T00:17:33.232Z,22.31
2018-11-14T00:20:02.792Z,22.30
2018-11-14T00:22:29.569Z,22.27
2018-11-14T00:24:56.341Z,22.28
2018-11-14T00:27:23.049Z,22.25
2018-11-14T00:29:49.787Z,22.26
2018-11-14T00:32:16.538Z,22.23
2018-11-14T00:34:46.038Z,22.24
2018-11-14T00:37:12.622Z,22.21
2018-11-14T00:39:39.274Z,22.20
2018-11-14T00:42:05.985Z,22.20
2018-11-14T00:44:32.791Z,22.17
2018-11-14T00:46:59.456Z,22.17
2018-11-14T00:49:26.110Z,22.18
2018-11-14T00:51:52.912Z,22.18
2018-11-14T00:54:19.586Z,22.16
2018-11-14T00:56:46.293Z,22.16
2018-11-14T00:59:12.933Z,22.16
2018-11-14T01:01:43.079Z,22.13
2018-11-14T01:04:12.979Z,22.11
2018-11-14T01:06:39.604Z,22.12
2018-11-14T01:09:06.356Z,22.09
2018-11-14T01:11:32.975Z,22.11
2018-11-14T01:13:59.775Z,22.07
2018-11-14T01:16:26.422Z,22.10
2018-11-14T01:18:53.159Z,22.07
2018-11-14T01:21:19.896Z,22.05
2018-11-14T01:23:46.744Z,22.06
2018-11-14T01:26:13.403Z,22.01
2018-11-14T01:28:40.054Z,22.04
2018-11-14T01:31:06.819Z,22.05
2018-11-14T01:33:33.507Z,22.00
2018-11-14T01:36:00.226Z,22.02
2018-11-14T01:38:26.871Z,22.02
2018-11-14T01:40:53.521Z,22.01
2018-11-14T01:43:20.242Z,22.02
2018-11-14T01:45:46.947Z,21.99
2018-11-14T01:48:13.668Z,22.02
2018-11-14T01:50:42.548Z,22.00
2018-11-14T01:53:07.102Z,21.98
2018-11-14T01:55:34.783Z,21.96
2018-11-14T01:58:00.410Z,21.95
2018-11-14T02:00:27.122Z,21.94
2018-11-14T02:02:53.886Z,21.96
2018-11-14T02:05:20.559Z,21.93
2018-11-14T02:07:47.265Z,21.92
2018-11-14T02:10:13.939Z,21.91
2018-11-14T02:12:40.653Z,21.92
2018-11-14T02:15:07.311Z,21.90
2018-11-14T02:17:34.036Z,21.90
2018-11-14T02:20:03.566Z,21.87
2018-11-14T02:22:30.468Z,21.87
2018-11-14T02:24:59.014Z,21.87
2018-11-14T02:27:23.781Z,21.88
2018-11-14T02:29:50.560Z,21.83
2018-11-14T02:32:17.221Z,21.84
2018-11-14T02:34:46.782Z,21.84
2018-11-14T02:37:13.435Z,21.81
2018-11-14T02:39:40.254Z,21.82
2018-11-14T02:42:06.952Z,21.80
2018-11-14T02:44:33.655Z,21.78
2018-11-14T02:47:00.396Z,21.77
2018-11-14T02:49:27.061Z,21.75
2018-11-14T02:51:53.698Z,21.76
2018-11-14T02:54:20.397Z,21.78
2018-11-14T02:56:47.093Z,21.77
2018-11-14T02:59:13.834Z,21.77
2018-11-14T03:01:40.483Z,21.76
2018-11-14T03:04:07.191Z,21.78
2018-11-14T03:06:33.940Z,21.73
2018-11-14T03:09:01.859Z,21.73
2018-11-14T03:11:27.383Z,21.70
2018-11-14T03:13:54.096Z,21.70
2018-11-14T03:16:20.836Z,21.70
2018-11-14T03:18:47.564Z,21.69
2018-11-14T03:21:14.384Z,21.68
2018-11-14T03:23:41.058Z,21.67
2018-11-14T03:26:07.673Z,21.71
2018-11-14T03:28:38.788Z,21.72
2018-11-14T03:31:04.956Z,21.69
2018-11-14T03:33:31.673Z,21.67
2018-11-14T03:35:58.330Z,21.65
2018-11-14T03:38:25.053Z,21.64
2018-11-14T03:40:51.763Z,21.48
2018-11-14T03:43:18.415Z,21.46
2018-11-14T03:45:46.406Z,21.38
2018-11-14T03:48:11.925Z,21.33
2018-11-14T03:50:38.636Z,21.33
2018-11-14T03:53:05.329Z,21.28
2018-11-14T03:55:31.984Z,21.34
2018-11-14T03:57:58.708Z,21.37
2018-11-14T04:00:25.352Z,21.40
2018-11-14T04:02:52.018Z,21.37
2018-11-14T04:05:18.883Z,21.38
2018-11-14T04:07:45.486Z,21.43
2018-11-14T04:10:12.209Z,21.40
2018-11-14T04:12:38.918Z,21.43
2018-11-14T04:15:05.617Z,20.96
2018-11-14T04:17:35.083Z,20.53
2018-11-14T04:19:59.634Z,20.43
2018-11-14T04:22:26.398Z,20.44
2018-11-14T04:24:53.091Z,20.43
2018-11-14T04:27:22.623Z,20.27
2018-11-14T04:29:46.756Z,20.43
2018-11-14T04:32:13.507Z,20.30
2018-11-14T04:34:40.278Z,20.52
2018-11-14T04:37:06.936Z,20.72
2018-11-14T04:39:33.662Z,20.83
2018-11-14T04:42:00.315Z,21.04
2018-11-14T04:44:27.024Z,21.19
2018-11-14T04:46:53.750Z,21.29
2018-11-14T04:49:20.461Z,21.32
2018-11-14T04:51:47.256Z,21.39
2018-11-14T04:54:13.887Z,21.43
2018-11-14T04:56:40.598Z,21.49
2018-11-14T04:59:07.296Z,21.52
2018-11-14T05:01:33.986Z,21.57
2018-11-14T05:04:00.658Z,21.64
2018-11-14T05:06:27.352Z,21.68
2018-11-14T05:08:54.040Z,21.68
2018-11-14T05:11:20.827Z,21.80
2018-11-14T05:13:47.533Z,21.72
2018-11-14T05:16:14.229Z,21.71
2018-11-14T05:18:40.978Z,21.82
2018-11-14T05:21:07.629Z,21.88
2018-11-14T05:23:34.363Z,21.82
2018-11-14T05:26:01.097Z,21.85
2018-11-14T05:28:28.961Z,21.88
2018-11-14T05:30:54.418Z,21.87
2018-11-14T05:33:21.120Z,21.79
2018-11-14T05:35:47.762Z,21.86
2018-11-14T05:38:14.510Z,21.90
2018-11-14T05:40:41.152Z,21.90
2018-11-14T05:43:07.910Z,21.97
2018-11-14T05:45:34.682Z,21.96
2018-11-14T05:48:01.389Z,21.93
2018-11-14T05:50:28.134Z,22.07
2018-11-14T05:52:54.882Z,22.19
2018-11-14T05:55:21.717Z,22.01
2018-11-14T05:57:48.369Z,22.04
2018-11-14T06:00:15.239Z,22.08
2018-11-14T06:02:42.013Z,22.17
2018-11-14T06:05:08.676Z,22.15
2018-11-14T06:07:35.366Z,22.17
2018-11-14T06:10:02.029Z,22.23
2018-11-14T06:12:28.773Z,22.24
2018-11-14T06:14:58.222Z,22.27
2018-11-14T06:17:24.878Z,22.30
2018-11-14T06:19:51.588Z,22.35
2018-11-14T06:22:18.322Z,22.36
2018-11-14T06:24:45.127Z,22.30
2018-11-14T06:27:11.773Z,22.34
2018-11-14T06:29:38.512Z,22.41
2018-11-14T06:32:05.251Z,22.44
2018-11-14T06:34:31.940Z,22.39
2018-11-14T06:36:58.670Z,22.66
2018-11-14T06:39:25.448Z,22.63
2018-11-14T06:41:52.229Z,22.67
2018-11-14T06:44:18.958Z,22.63
2018-11-14T06:46:45.709Z,22.75
2018-11-14T06:49:15.282Z,22.84
2018-11-14T06:51:41.995Z,22.91
2018-11-14T06:54:08.823Z,22.80
2018-11-14T06:56:35.580Z,22.92
2018-11-14T06:59:02.335Z,23.05
2018-11-14T07:01:28.994Z,23.08
2018-11-14T07:03:55.629Z,23.15
2018-11-14T07:06:23.724Z,23.02
2018-11-14T07:08:50.100Z,23.17
2018-11-14T07:11:16.853Z,23.11
2018-11-14T07:13:43.574Z,23.26
2018-11-14T07:16:10.243Z,23.17
2018-11-14T07:18:36.952Z,23.26
2018-11-14T07:21:03.691Z,23.25
2018-11-14T07:23:30.476Z,23.28
2018-11-14T07:25:57.091Z,23.29
2018-11-14T07:28:24.013Z,23.33
2018-11-14T07:30:50.643Z,23.40
2018-11-14T07:33:17.321Z,23.48
2018-11-14T07:35:44.165Z,23.45
2018-11-14T07:38:10.840Z,23.53
2018-11-14T07:40:40.391Z,23.64
2018-11-14T07:43:07.099Z,23.61
2018-11-14T07:45:33.761Z,23.73
2018-11-14T07:48:00.402Z,23.82
2018-11-14T07:50:28.327Z,23.82
2018-11-14T07:52:55.041Z,23.89
2018-11-14T07:55:23.061Z,23.93
2018-11-14T07:57:48.399Z,23.94
2018-11-14T08:00:15.078Z,23.99
2018-11-14T08:02:41.835Z,23.98
2018-11-14T08:05:08.970Z,24.10
2018-11-14T08:07:35.690Z,24.14
2018-11-14T08:10:02.333Z,24.11
2018-11-14T08:12:28.990Z,24.26
2018-11-14T08:14:56.737Z,24.28
2018-11-14T08:17:23.565Z,24.35
2018-11-14T08:19:50.225Z,24.44
2018-11-14T08:22:17.284Z,24.42
2018-11-14T08:24:46.353Z,24.55
2018-11-14T08:27:12.967Z,24.58
2018-11-14T08:29:39.956Z,24.60
2018-11-14T08:32:06.600Z,24.59
2018-11-14T08:34:33.251Z,24.64
2018-11-14T08:37:00.060Z,24.53
2018-11-14T08:39:26.868Z,24.59
2018-11-14T08:41:55.883Z,24.61
2018-11-14T08:44:22.605Z,24.56
2018-11-14T08:46:52.164Z,24.60
2018-11-14T08:49:18.978Z,24.60
2018-11-14T08:51:45.676Z,24.64
2018-11-14T08:54:13.227Z,24.63
2018-11-14T08:56:39.884Z,24.57
2018-11-14T08:59:06.690Z,24.69
2018-11-14T09:01:34.060Z,24.73
2018-11-14T09:04:00.740Z,24.66
2018-11-14T09:06:27.450Z,24.66
2018-11-14T09:08:54.118Z,24.70
2018-11-14T09:11:20.886Z,24.69
2018-11-14T09:13:51.015Z,24.69
2018-11-14T09:16:16.482Z,24.68
2018-11-14T09:18:43.217Z,24.67
2018-11-14T09:21:10.117Z,24.76
2018-11-14T09:23:36.861Z,24.65
2018-11-14T09:26:03.678Z,24.79
2018-11-14T09:28:30.387Z,24.84
2018-11-14T09:30:57.062Z,24.84
2018-11-14T09:33:23.800Z,24.71
2018-11-14T09:35:51.088Z,24.75
2018-11-14T09:38:17.827Z,24.71
2018-11-14T09:40:44.627Z,24.64
2018-11-14T09:43:11.280Z,24.73
2018-11-14T09:45:37.994Z,24.69
2018-11-14T09:48:04.728Z,24.74
2018-11-14T09:50:32.668Z,24.83
2018-11-14T09:52:58.327Z,24.67
2018-11-14T09:55:25.043Z,24.74
2018-11-14T09:57:51.880Z,24.77
2018-11-14T10:00:18.612Z,24.84
2018-11-14T10:02:48.243Z,24.89
2018-11-14T10:05:15.083Z,24.80
2018-11-14T10:07:41.890Z,24.84
2018-11-14T10:10:08.595Z,24.86
2018-11-14T10:12:35.336Z,24.89
2018-11-14T10:15:03.736Z,24.97
2018-11-14T10:17:28.788Z,24.90
2018-11-14T10:19:56.565Z,24.97
2018-11-14T10:22:25.458Z,24.95
2018-11-14T10:24:49.984Z,24.88
2018-11-14T10:27:16.724Z,24.93
2018-11-14T10:29:43.370Z,25.02
2018-11-14T10:32:10.113Z,24.83
2018-11-14T10:34:36.771Z,24.79
2018-11-14T10:37:03.487Z,24.82
2018-11-14T10:39:30.190Z,24.77
2018-11-14T10:41:57.882Z,24.73
2018-11-14T10:44:23.599Z,24.78
2018-11-14T10:46:50.318Z,24.71
2018-11-14T10:49:17.025Z,24.72
2018-11-14T10:51:43.749Z,24.72
2018-11-14T10:54:10.458Z,24.74
2018-11-14T10:56:37.200Z,24.81
2018-11-14T10:59:03.932Z,24.64
2018-11-14T11:01:30.726Z,24.67
2018-11-14T11:03:57.457Z,24.82
2018-11-14T11:06:24.121Z,24.75
2018-11-14T11:08:53.323Z,24.73
2018-11-14T11:11:17.802Z,24.71
2018-11-14T11:13:44.546Z,24.70
2018-11-14T11:16:14.084Z,24.80
2018-11-14T11:18:40.738Z,24.76
2018-11-14T11:21:07.544Z,24.83
2018-11-14T11:23:34.283Z,24.78
2018-11-14T11:26:00.879Z,24.89
2018-11-14T11:28:27.741Z,25.12
2018-11-14T11:30:54.409Z,25.09
2018-11-14T11:33:21.204Z,25.01
2018-11-14T11:35:47.858Z,25.03
2018-11-14T11:38:14.703Z,24.95
2018-11-14T11:40:41.354Z,24.94
2018-11-14T11:43:08.181Z,24.89
2018-11-14T11:45:34.964Z,24.74
2018-11-14T11:48:01.610Z,24.49
2018-11-14T11:50:28.318Z,24.34
2018-11-14T11:52:55.129Z,24.34
2018-11-14T11:55:21.783Z,24.51
2018-11-14T11:57:48.519Z,24.59
2018-11-14T12:00:15.340Z,24.74
2018-11-14T12:02:41.999Z,24.82
2018-11-14T12:05:08.752Z,24.82
2018-11-14T12:07:38.226Z,24.73
2018-11-14T12:10:04.913Z,24.84
2018-11-14T12:12:31.826Z,24.49
2018-11-14T12:14:58.553Z,24.76
2018-11-14T12:17:25.259Z,24.81
2018-11-14T12:19:51.993Z,24.75
2018-11-14T12:22:18.690Z,24.88
2018-11-14T12:24:48.370Z,24.78
2018-11-14T12:27:15.116Z,24.75
2018-11-14T12:29:41.826Z,24.90
2018-11-14T12:32:08.571Z,25.01
2018-11-14T12:34:35.272Z,24.97
2018-11-14T12:37:02.060Z,25.01
2018-11-14T12:39:28.814Z,24.94
2018-11-14T12:41:56.029Z,24.92
2018-11-14T12:44:22.786Z,24.87
2018-11-14T12:46:49.479Z,24.90
2018-11-14T12:49:16.334Z,24.88
2018-11-14T12:51:45.648Z,24.85
2018-11-14T12:54:12.391Z,24.88
2018-11-14T12:56:39.036Z,24.82
2018-11-14T12:59:05.873Z,24.75
2018-11-14T13:01:34.208Z,24.81
2018-11-14T13:03:59.348Z,24.86
2018-11-14T13:06:26.165Z,24.80
2018-11-14T13:08:52.923Z,24.70
2018-11-14T13:11:19.824Z,24.78
2018-11-14T13:13:46.514Z,24.77
2018-11-14T13:16:13.271Z,24.89
2018-11-14T13:18:40.034Z,24.76
2018-11-14T13:21:06.748Z,24.77
2018-11-14T13:23:33.640Z,24.86
2018-11-14T13:26:00.380Z,24.87
2018-11-14T13:28:27.140Z,24.96
2018-11-14T13:30:53.972Z,24.91
2018-11-14T13:33:20.805Z,24.91
2018-11-14T13:35:47.546Z,24.87
2018-11-14T13:38:14.225Z,24.86
2018-11-14T13:40:40.982Z,24.86
2018-11-14T13:43:07.820Z,24.95
2018-11-14T13:45:34.454Z,24.97
2018-11-14T13:48:01.148Z,25.01
2018-11-14T13:50:28.119Z,24.98
2018-11-14T13:52:56.180Z,24.98
2018-11-14T13:55:21.619Z,24.87
2018-11-14T13:57:48.401Z,25.02
2018-11-14T14:00:15.243Z,24.94
2018-11-14T14:02:41.984Z,24.91
2018-11-14T14:05:08.760Z,24.87
2018-11-14T14:07:35.534Z,24.87
2018-11-14T14:10:02.237Z,24.90
2018-11-14T14:12:31.737Z,24.96
2018-11-14T14:14:58.506Z,24.95
2018-11-14T14:17:25.310Z,24.98
2018-11-14T14:19:52.080Z,24.97
2018-11-14T14:22:18.853Z,24.99
2018-11-14T14:24:46.367Z,24.97
2018-11-14T14:27:13.154Z,24.95
2018-11-14T14:29:39.945Z,24.92
2018-11-14T14:32:06.710Z,25.04
2018-11-14T14:34:33.482Z,24.92
2018-11-14T14:37:00.337Z,24.97
2018-11-14T14:39:27.075Z,24.93
2018-11-14T14:41:54.500Z,24.92
2018-11-14T14:44:22.560Z,24.96
2018-11-14T14:46:47.989Z,24.97
2018-11-14T14:49:14.781Z,24.98
2018-11-14T14:51:41.449Z,25.01
2018-11-14T14:54:10.301Z,24.89
2018-11-14T14:56:37.084Z,24.90
2018-11-14T14:59:03.827Z,24.79
2018-11-14T15:01:30.733Z,24.85
2018-11-14T15:04:00.428Z,24.84
2018-11-14T15:06:29.269Z,24.99
2018-11-14T15:08:53.876Z,24.90
2018-11-14T15:11:20.647Z,24.91
2018-11-14T15:13:47.579Z,24.79
2018-11-14T15:16:14.277Z,24.86
2018-11-14T15:18:40.975Z,24.87
2018-11-14T15:21:07.734Z,24.87
2018-11-14T15:23:34.465Z,24.90
2018-11-14T15:26:01.361Z,24.89
2018-11-14T15:28:28.132Z,24.90
2018-11-14T15:30:54.844Z,24.87
2018-11-14T15:33:24.467Z,24.87
2018-11-14T15:35:51.249Z,24.88
2018-11-14T15:38:17.968Z,24.83
2018-11-14T15:40:47.952Z,24.94
2018-11-14T15:43:17.285Z,24.75
2018-11-14T15:45:44.009Z,24.80
2018-11-14T15:48:10.702Z,24.74
2018-11-14T15:50:42.403Z,24.80
2018-11-14T15:53:07.714Z,24.81
2018-11-14T15:55:34.403Z,24.77
2018-11-14T15:58:01.251Z,24.78
2018-11-14T16:00:27.844Z,24.79
2018-11-14T16:02:54.633Z,24.74
2018-11-14T16:05:21.520Z,24.79
2018-11-14T16:07:48.192Z,24.75
2018-11-14T16:10:14.973Z,24.72
2018-11-14T16:12:41.662Z,24.74
2018-11-14T16:15:11.210Z,24.78
2018-11-14T16:17:38.112Z,24.74
2018-11-14T16:20:04.916Z,24.81
2018-11-14T16:22:31.757Z,24.68
2018-11-14T16:24:58.621Z,24.66
2018-11-14T16:27:25.246Z,24.65
2018-11-14T16:29:51.980Z,24.62
2018-11-14T16:32:18.842Z,24.73
2018-11-14T16:34:45.586Z,24.65
2018-11-14T16:37:12.402Z,24.65
2018-11-14T16:39:39.107Z,24.64
2018-11-14T16:42:05.963Z,24.66
2018-11-14T16:44:32.782Z,24.71
2018-11-14T16:46:59.426Z,24.56
2018-11-14T16:49:28.705Z,24.61
2018-11-14T16:51:55.468Z,24.58
2018-11-14T16:54:22.313Z,24.56
2018-11-14T16:56:49.080Z,24.50
2018-11-14T16:59:15.782Z,24.53
2018-11-14T17:01:42.571Z,24.52
2018-11-14T17:04:09.295Z,24.53
2018-11-14T17:06:36.129Z,24.51
2018-11-14T17:09:02.829Z,24.52
2018-11-14T17:11:30.183Z,24.48
2018-11-14T17:13:59.844Z,24.49
2018-11-14T17:16:26.589Z,24.47
2018-11-14T17:18:53.321Z,24.46
2018-11-14T17:21:20.034Z,24.46
2018-11-14T17:23:46.682Z,24.43
2018-11-14T17:26:13.425Z,24.43
2018-11-14T17:28:40.072Z,24.41
2018-11-14T17:31:06.790Z,24.44
2018-11-14T17:33:33.481Z,24.41
2018-11-14T17:36:00.262Z,24.43
2018-11-14T17:38:27.009Z,24.36
2018-11-14T17:40:53.722Z,24.38
2018-11-14T17:43:20.614Z,24.38
2018-11-14T17:45:50.354Z,24.40
2018-11-14T17:48:19.903Z,24.38
2018-11-14T17:50:46.584Z,24.38
2018-11-14T17:53:14.636Z,24.37
2018-11-14T17:55:40.045Z,24.36
2018-11-14T17:58:06.850Z,24.35
2018-11-14T18:00:33.517Z,24.34
2018-11-14T18:03:00.393Z,24.37
2018-11-14T18:05:26.894Z,24.35
2018-11-14T18:07:53.615Z,24.35
2018-11-14T18:10:21.656Z,24.38
2018-11-14T18:12:47.195Z,24.31
2018-11-14T18:15:16.241Z,24.36
2018-11-14T18:17:40.656Z,24.33
2018-11-14T18:20:07.314Z,24.34
2018-11-14T18:22:34.019Z,24.34
2018-11-14T18:25:00.738Z,24.36
2018-11-14T18:27:27.451Z,24.33
2018-11-14T18:29:54.164Z,24.34
2018-11-14T18:32:20.760Z,24.34
2018-11-14T18:34:47.487Z,24.33
2018-11-14T18:37:14.199Z,24.32
2018-11-14T18:39:40.973Z,24.31
2018-11-14T18:42:07.609Z,24.31
2018-11-14T18:44:34.289Z,24.30
2018-11-14T18:47:01.015Z,24.33
2018-11-14T18:49:27.781Z,24.41
2018-11-14T18:51:54.449Z,24.30
2018-11-14T18:54:21.166Z,24.27
2018-11-14T18:56:47.828Z,24.27
2018-11-14T18:59:15.344Z,24.27
2018-11-14T19:01:43.035Z,24.26
2018-11-14T19:04:09.765Z,24.31
2018-11-14T19:06:36.513Z,24.32
2018-11-14T19:09:03.223Z,24.25
2018-11-14T19:11:29.883Z,24.25
2018-11-14T19:13:56.667Z,24.22
2018-11-14T19:16:23.464Z,24.24
2018-11-14T19:18:50.141Z,24.22
2018-11-14T19:21:16.858Z,24.21
2018-11-14T19:23:43.510Z,24.21
2018-11-14T19:26:10.185Z,24.19
2018-11-14T19:28:36.886Z,24.21
2018-11-14T19:31:03.594Z,24.19
2018-11-14T19:33:30.296Z,24.17
2018-11-14T19:35:58.030Z,24.18
2018-11-14T19:38:24.667Z,24.15
2018-11-14T19:40:51.516Z,24.15
2018-11-14T19:43:18.235Z,24.16
2018-11-14T19:45:45.002Z,24.17
2018-11-14T19:48:11.746Z,24.04
2018-11-14T19:50:38.544Z,23.89
2018-11-14T19:53:05.235Z,23.78
2018-11-14T19:55:31.935Z,23.80
2018-11-14T19:57:58.645Z,23.77
2018-11-14T20:00:25.610Z,23.86
2018-11-14T20:02:52.254Z,23.98
2018-11-14T20:05:18.965Z,24.01
2018-11-14T20:07:45.613Z,24.02
2018-11-14T20:10:12.472Z,24.06
2018-11-14T20:12:39.110Z,24.10
2018-11-14T20:15:05.755Z,24.10
2018-11-14T20:17:34.716Z,24.14
2018-11-14T20:20:01.372Z,24.09
2018-11-14T20:22:28.026Z,24.09
2018-11-14T20:24:54.800Z,24.09
2018-11-14T20:27:21.628Z,24.09
2018-11-14T20:29:51.601Z,24.05
2018-11-14T20:32:18.247Z,24.07
2018-11-14T20:34:45.067Z,24.08
2018-11-14T20:37:11.796Z,24.05
2018-11-14T20:39:38.395Z,24.07
2018-11-14T20:42:05.193Z,24.08
2018-11-14T20:44:33.502Z,24.05
2018-11-14T20:46:58.573Z,24.04
2018-11-14T20:49:25.297Z,24.08
2018-11-14T20:51:51.955Z,24.06
2018-11-14T20:54:18.662Z,24.05
2018-11-14T20:56:45.313Z,24.06
2018-11-14T20:59:12.003Z,24.08
2018-11-14T21:01:41.760Z,24.04
2018-11-14T21:04:08.467Z,24.03
2018-11-14T21:06:35.139Z,24.04
2018-11-14T21:09:02.015Z,24.01
2018-11-14T21:11:28.753Z,24.02
2018-11-14T21:13:55.424Z,24.03
2018-11-14T21:16:22.239Z,24.05
2018-11-14T21:18:50.270Z,24.05
2018-11-14T21:21:15.663Z,24.03
2018-11-14T21:23:42.325Z,24.02
2018-11-14T21:26:09.040Z,24.04
2018-11-14T21:28:35.734Z,24.03
2018-11-14T21:31:02.443Z,24.02
2018-11-14T21:33:31.755Z,24.02
2018-11-14T21:35:58.486Z,23.99
2018-11-14T21:38:25.285Z,23.99
2018-11-14T21:40:51.910Z,24.02
2018-11-14T21:43:18.671Z,24.02
2018-11-14T21:45:45.422Z,24.01
2018-11-14T21:48:12.086Z,24.02
2018-11-14T21:50:38.856Z,23.99
2018-11-14T21:53:05.616Z,23.99
2018-11-14T21:55:32.221Z,23.99
2018-11-14T21:57:58.993Z,24.00
2018-11-14T22:00:25.660Z,23.98
2018-11-14T22:02:53.455Z,24.00
2018-11-14T22:05:20.148Z,23.99
2018-11-14T22:07:46.900Z,24.02
2018-11-14T22:10:13.589Z,24.00
2018-11-14T22:12:40.277Z,23.98
2018-11-14T22:15:08.455Z,23.98
2018-11-14T22:17:33.795Z,24.00
2018-11-14T22:20:00.591Z,23.95
2018-11-14T22:22:27.518Z,23.97
2018-11-14T22:24:54.195Z,23.97
2018-11-14T22:27:20.937Z,23.97
2018-11-14T22:29:47.622Z,23.98
2018-11-14T22:32:14.404Z,23.98
2018-11-14T22:34:41.113Z,23.95
2018-11-14T22:37:07.834Z,23.94
2018-11-14T22:39:37.439Z,23.96
2018-11-14T22:42:04.243Z,23.97
2018-11-14T22:44:32.287Z,23.96
2018-11-14T22:46:58.821Z,23.93
2018-11-14T22:49:25.525Z,23.94
2018-11-14T22:51:53.685Z,23.97
2018-11-14T22:54:18.980Z,23.93
2018-11-14T22:56:45.670Z,23.93
2018-11-14T22:59:12.435Z,23.92
2018-11-14T23:01:39.127Z,23.92
2018-11-14T23:04:05.940Z,23.93
2018-11-14T23:06:32.634Z,23.92
2018-11-14T23:08:59.319Z,23.91
2018-11-14T23:11:26.087Z,23.92
2018-11-14T23:13:52.774Z,23.92
2018-11-14T23:16:22.431Z,23.91
2018-11-14T23:18:49.226Z,23.91
2018-11-14T23:21:15.933Z,23.92
2018-11-14T23:23:42.670Z,23.93
2018-11-14T23:26:09.373Z,23.93
2018-11-14T23:28:36.058Z,23.89
2018-11-14T23:31:02.812Z,23.89
2018-11-14T23:33:29.553Z,23.93
2018-11-14T23:35:56.385Z,23.90
2018-11-14T23:38:23.077Z,23.92
2018-11-14T23:40:50.025Z,23.92
2018-11-14T23:43:16.764Z,23.90
2018-11-14T23:45:45.600Z,23.91
2018-11-14T23:48:12.289Z,23.86
2018-11-14T23:50:39.032Z,23.90
2018-11-14T23:53:05.733Z,23.90
2018-11-14T23:55:32.779Z,23.88
2018-11-14T23:57:59.592Z,23.88
